Time;durP1;ratioP1;P1;durP2;ratioP2;P2;SDS_P1;SDS_P2;PMS_P1;PMS_P2;Temp;Humidity;BMP_temperature;BMP_pressure;BME280_temperature;BME280_humidity;BME280_pressure;Samples;Min_cycle;Max_cycle;Signal;HPM_P1;HPM_P2
2022/12/11 00:00:31;;;;;;;2.00;1.93;;;-1.00;97.30;;;;;;4990794;28;20435;-91
2022/12/11 00:02:57;;;;;;;7.27;3.77;;;-1.00;97.30;;;;;;4992413;28;20191;-92
2022/12/11 00:05:22;;;;;;;1.63;1.33;;;-1.00;97.30;;;;;;4997784;28;20293;-92
2022/12/11 00:07:48;;;;;;;1.47;1.43;;;-1.10;97.30;;;;;;4986574;28;20252;-92
2022/12/11 00:10:14;;;;;;;2.37;2.17;;;-1.10;97.30;;;;;;5000663;28;20417;-91
2022/12/11 00:12:40;;;;;;;5.20;2.30;;;-1.10;97.30;;;;;;4999486;28;20173;-92
2022/12/11 00:15:06;;;;;;;1.80;1.43;;;-1.10;97.30;;;;;;5000506;28;20260;-92
2022/12/11 00:17:32;;;;;;;1.30;1.20;;;-1.10;97.30;;;;;;5000397;28;20181;-92
2022/12/11 00:19:57;;;;;;;4.80;1.70;;;-1.20;97.30;;;;;;4985824;28;20436;-92
2022/12/11 00:22:23;;;;;;;1.73;1.60;;;-1.20;97.30;;;;;;4981832;28;20178;-92
2022/12/11 00:24:50;;;;;;;1.50;1.40;;;-1.20;97.30;;;;;;5001633;28;20603;-92
2022/12/11 00:27:15;;;;;;;1.70;1.60;;;-1.20;97.30;;;;;;4998157;28;20205;-92
2022/12/11 00:29:41;;;;;;;2.37;2.17;;;-1.20;97.30;;;;;;5001144;28;20426;-92
2022/12/11 00:32:07;;;;;;;2.10;1.60;;;-1.10;97.30;;;;;;4998317;28;20185;-92
2022/12/11 00:34:33;;;;;;;4.20;2.27;;;-1.10;97.30;;;;;;5001445;28;20208;-91
2022/12/11 00:36:58;;;;;;;4.10;3.07;;;-1.10;97.30;;;;;;5010319;28;20181;-92
2022/12/11 00:39:24;;;;;;;2.40;1.90;;;-1.10;97.30;;;;;;4999486;28;20352;-93
2022/12/11 00:41:50;;;;;;;1.90;1.83;;;-1.10;97.30;;;;;;4998023;28;20719;-92
2022/12/11 00:44:16;;;;;;;1.20;1.10;;;-1.10;97.30;;;;;;4985234;28;20511;-92
2022/12/11 00:46:42;;;;;;;4.70;2.77;;;-1.10;97.30;;;;;;4990021;28;20565;-91
2022/12/11 00:49:08;;;;;;;1.30;1.20;;;-1.10;97.30;;;;;;4985115;28;20429;-91
2022/12/11 00:51:35;;;;;;;2.20;2.03;;;-1.10;97.30;;;;;;5000235;28;20432;-92
2022/12/11 00:54:03;;;;;;;2.60;2.40;;;-1.10;97.30;;;;;;5016169;28;20480;-92
2022/12/11 00:56:29;;;;;;;1.40;1.30;;;-1.10;97.30;;;;;;4992730;28;20479;-92
2022/12/11 00:58:56;;;;;;;2.67;2.47;;;-1.10;97.30;;;;;;5001176;28;20431;-91
2022/12/11 01:01:24;;;;;;;1.37;1.27;;;-1.10;97.30;;;;;;4959539;28;20434;-92
2022/12/11 01:03:51;;;;;;;5.67;1.83;;;-1.10;97.30;;;;;;4994059;28;20420;-91
2022/12/11 01:06:22;;;;;;;2.50;2.33;;;-1.20;97.30;;;;;;4993156;28;20619;-92
2022/12/11 01:10:22;;;;;;;3.83;3.13;;;-1.20;97.30;;;;;;5000582;28;20444;-92
2022/12/11 01:11:42;;;;;;;3.97;2.50;;;-1.20;97.30;;;;;;5018008;28;20435;-91
2022/12/11 01:14:10;;;;;;;3.47;2.10;;;-1.20;97.30;;;;;;4981783;28;20658;-92
2022/12/11 01:16:38;;;;;;;1.73;1.63;;;-1.20;97.30;;;;;;4983986;28;20433;-92
2022/12/11 01:19:04;;;;;;;1.50;1.40;;;-1.20;97.30;;;;;;4975320;28;21026;-92
2022/12/11 01:21:31;;;;;;;1.67;1.57;;;-1.20;97.30;;;;;;5001966;28;20456;-91
2022/12/11 01:23:59;;;;;;;2.30;2.03;;;-1.20;97.30;;;;;;4995516;28;20435;-91
2022/12/11 01:26:25;;;;;;;5.80;2.80;;;-1.10;97.30;;;;;;4999348;28;21007;-91
2022/12/11 01:28:51;;;;;;;3.17;2.80;;;-1.10;97.30;;;;;;4992136;28;20501;-91
2022/12/11 01:31:19;;;;;;;4.90;1.70;;;-1.10;97.30;;;;;;4995533;28;20490;-92
2022/12/11 01:33:46;;;;;;;1.50;1.40;;;-1.20;97.30;;;;;;5028500;28;20421;-90
2022/12/11 01:36:21;;;;;;;1.57;1.47;;;-1.10;97.30;;;;;;5000881;28;20598;-91
2022/12/11 01:38:48;;;;;;;1.60;1.50;;;-1.20;97.30;;;;;;4989362;28;20475;-91
2022/12/11 01:41:15;;;;;;;1.63;1.53;;;-1.10;97.30;;;;;;4984962;28;20425;-92
2022/12/11 01:44:00;;;;;;;1.63;1.53;;;-1.10;97.30;;;;;;4978519;28;20432;-90
2022/12/11 01:46:28;;;;;;;2.80;2.60;;;-1.10;97.30;;;;;;5001836;28;20499;-91
2022/12/11 01:48:55;;;;;;;1.83;1.73;;;-1.10;97.30;;;;;;4994504;28;20474;-91
2022/12/11 01:51:22;;;;;;;2.27;2.07;;;-1.10;97.30;;;;;;4994679;28;20435;-92
2022/12/11 01:53:54;;;;;;;5.83;4.07;;;-1.10;97.30;;;;;;4993270;28;20425;-91
2022/12/11 01:56:20;;;;;;;3.40;2.63;;;-1.10;97.30;;;;;;4989815;28;20674;-90
2022/12/11 01:58:51;;;;;;;2.23;2.03;;;-1.10;97.30;;;;;;4981455;28;20478;-90
2022/12/11 02:01:29;;;;;;;3.37;3.17;;;-1.10;97.30;;;;;;4987625;28;20424;-91
2022/12/11 02:03:56;;;;;;;6.00;3.10;;;-1.10;97.30;;;;;;4994293;28;20922;-91
2022/12/11 02:06:37;;;;;;;15.20;4.00;;;-1.10;97.30;;;;;;4977213;28;20453;-92
2022/12/11 02:09:07;;;;;;;1.70;1.60;;;-1.10;97.30;;;;;;4999728;28;20432;-90
2022/12/11 02:11:44;;;;;;;2.13;1.97;;;-1.10;97.30;;;;;;4998131;28;20417;-92
2022/12/11 02:14:36;;;;;;;2.80;2.40;;;-1.10;97.30;;;;;;4989643;28;20522;-92
2022/12/11 02:17:28;;;;;;;1.83;1.73;;;-1.10;97.30;;;;;;5000975;28;20420;-92
2022/12/11 02:20:16;;;;;;;2.37;2.20;;;-1.10;97.30;;;;;;5000480;28;20412;-90
2022/12/11 02:23:04;;;;;;;1.70;1.60;;;-1.10;97.30;;;;;;4991217;28;20458;-90
2022/12/11 02:25:50;;;;;;;3.80;3.60;;;-1.10;97.30;;;;;;4998598;28;20443;-92
2022/12/11 02:28:30;;;;;;;2.10;1.57;;;-1.10;97.30;;;;;;4994986;28;20935;-92
2022/12/11 02:31:09;;;;;;;1.60;1.50;;;-1.10;97.30;;;;;;4990099;28;20417;-91
2022/12/11 02:33:52;;;;;;;1.70;1.60;;;-1.10;97.30;;;;;;4983657;28;20424;-91
2022/12/11 02:36:22;;;;;;;1.90;1.80;;;-1.10;97.30;;;;;;5000749;28;20550;-92
2022/12/11 02:38:51;;;;;;;1.60;1.50;;;-1.00;97.30;;;;;;4970792;28;20998;-92
2022/12/11 02:41:20;;;;;;;3.23;3.00;;;-1.00;97.30;;;;;;4985283;28;20433;-90
2022/12/11 02:43:49;;;;;;;1.23;1.13;;;-1.00;97.30;;;;;;4980560;28;20448;-92
2022/12/11 02:46:18;;;;;;;1.30;1.20;;;-1.00;97.30;;;;;;4994385;28;20465;-91
2022/12/11 02:48:49;;;;;;;1.60;1.50;;;-1.00;97.30;;;;;;4990324;28;20443;-91
2022/12/11 02:51:17;;;;;;;2.33;2.13;;;-1.00;97.30;;;;;;5000938;28;20466;-91
2022/12/11 02:53:45;;;;;;;1.43;1.33;;;-1.10;97.30;;;;;;4992842;28;20977;-90
2022/12/11 02:56:25;;;;;;;7.27;3.07;;;-1.10;97.30;;;;;;5003009;28;20420;-88
2022/12/11 02:58:56;;;;;;;1.90;1.80;;;-1.10;97.30;;;;;;4992445;28;20803;-91
2022/12/11 03:01:23;;;;;;;2.40;2.10;;;-1.10;97.30;;;;;;5002934;28;20606;-91
2022/12/11 03:03:49;;;;;;;2.37;2.17;;;-1.20;97.30;;;;;;5002430;28;20479;-91
2022/12/11 03:06:19;;;;;;;2.20;2.03;;;-1.20;97.30;;;;;;4999659;28;20498;-91
2022/12/11 03:08:45;;;;;;;3.90;2.00;;;-1.20;97.30;;;;;;5000277;28;20169;-92
2022/12/11 03:11:13;;;;;;;3.50;2.23;;;-1.20;97.30;;;;;;4974505;28;20428;-92
2022/12/11 03:13:42;;;;;;;4.60;3.63;;;-1.30;97.30;;;;;;4992700;28;20945;-91
2022/12/11 03:16:34;;;;;;;1.93;1.83;;;-1.30;97.30;;;;;;4986545;28;20431;-90
2022/12/11 03:19:24;;;;;;;4.70;2.97;;;-1.20;97.30;;;;;;4983903;28;21021;-89
2022/12/11 03:22:11;;;;;;;2.00;1.90;;;-1.20;97.30;;;;;;5016116;28;20482;-91
2022/12/11 03:24:57;;;;;;;2.13;1.97;;;-1.20;97.30;;;;;;5001502;28;20444;-91
2022/12/11 03:27:45;;;;;;;2.27;2.07;;;-1.30;97.30;;;;;;4992659;28;20475;-92
2022/12/11 03:30:16;;;;;;;1.30;1.20;;;-1.30;97.30;;;;;;4985212;28;20523;-92
2022/12/11 03:32:51;;;;;;;2.63;2.10;;;-1.30;97.30;;;;;;4988899;28;20491;-90
2022/12/11 03:35:55;;;;;;;2.70;2.50;;;-1.30;97.30;;;;;;4982987;23;20660;-90
2022/12/11 03:38:36;;;;;;;1.40;1.30;;;-1.30;97.30;;;;;;4943390;28;20437;-88
2022/12/11 03:41:03;;;;;;;2.40;2.20;;;-1.30;97.30;;;;;;4987380;28;20432;-91
2022/12/11 03:43:31;;;;;;;4.37;3.40;;;-1.30;97.30;;;;;;4992529;28;20903;-90
2022/12/11 03:45:58;;;;;;;3.90;1.67;;;-1.30;97.30;;;;;;4972373;28;20438;-91
2022/12/11 03:48:29;;;;;;;5.97;2.67;;;-1.30;97.30;;;;;;4968464;28;20444;-91
2022/12/11 03:50:55;;;;;;;1.30;1.20;;;-1.40;97.30;;;;;;4979093;28;20432;-90
2022/12/11 03:53:22;;;;;;;2.33;2.13;;;-1.40;97.30;;;;;;4991782;28;20495;-89
2022/12/11 03:55:49;;;;;;;1.33;1.27;;;-1.40;97.30;;;;;;4965805;28;20442;-90
2022/12/11 03:58:15;;;;;;;2.10;1.90;;;-1.50;97.30;;;;;;4961652;28;20511;-88
2022/12/11 04:00:40;;;;;;;3.10;2.90;;;-1.50;97.30;;;;;;4980611;28;20533;-89
2022/12/11 04:03:11;;;;;;;6.07;3.67;;;-1.50;97.30;;;;;;4973321;28;20193;-90
2022/12/11 04:05:37;;;;;;;5.33;2.50;;;-1.60;97.30;;;;;;4965478;28;20602;-90
2022/12/11 04:08:03;;;;;;;3.30;3.10;;;-1.60;97.30;;;;;;4972785;28;20468;-90
2022/12/11 04:10:29;;;;;;;1.53;1.43;;;-1.60;97.30;;;;;;4969380;28;20438;-88
2022/12/11 04:12:54;;;;;;;2.90;2.70;;;-1.70;97.30;;;;;;4959241;28;20187;-90
2022/12/11 04:15:20;;;;;;;2.00;1.90;;;-1.70;97.30;;;;;;4974410;28;20446;-89
2022/12/11 04:26:12;;;;;;;5.70;3.23;;;-1.70;97.30;;;;;;4972973;28;20465;-89
2022/12/11 04:28:41;;;;;;;3.07;2.10;;;-1.70;97.30;;;;;;4964601;28;20433;-89
2022/12/11 04:31:13;;;;;;;2.50;2.07;;;-1.70;97.30;;;;;;4971924;28;20484;-90
2022/12/11 04:33:39;;;;;;;2.37;2.13;;;-1.70;97.30;;;;;;4957133;28;20441;-88
2022/12/11 04:36:05;;;;;;;11.33;4.70;;;-1.70;97.30;;;;;;4954639;28;20833;-90
2022/12/11 04:38:30;;;;;;;1.33;1.23;;;-1.70;97.30;;;;;;4946418;28;20187;-90
2022/12/11 04:41:08;;;;;;;2.27;2.07;;;-1.70;97.30;;;;;;4948489;28;20426;-90
2022/12/11 04:43:33;;;;;;;3.30;2.60;;;-1.70;97.30;;;;;;4948490;29;20270;-90
2022/12/11 04:46:08;;;;;;;1.57;1.47;;;-1.70;97.30;;;;;;4951070;29;20518;-89
2022/12/11 04:48:34;;;;;;;3.47;3.27;;;-1.70;97.30;;;;;;4943348;28;20182;-90
2022/12/11 04:50:59;;;;;;;1.40;1.30;;;-1.80;97.30;;;;;;4941995;29;20427;-90
2022/12/11 04:53:25;;;;;;;1.20;1.10;;;-1.80;97.30;;;;;;4952803;28;20433;-90
2022/12/11 04:55:51;;;;;;;4.30;2.37;;;-1.80;97.30;;;;;;4944497;28;20241;-89
2022/12/11 04:58:17;;;;;;;2.50;2.30;;;-1.90;97.30;;;;;;4952426;28;20462;-90
2022/12/11 05:00:46;;;;;;;8.40;2.60;;;-1.80;97.30;;;;;;4942621;29;20194;-90
2022/12/11 05:03:11;;;;;;;6.23;3.43;;;-1.90;97.30;;;;;;4948181;29;20274;-90
2022/12/11 05:05:38;;;;;;;3.10;2.90;;;-1.90;97.30;;;;;;4950153;28;20521;-90
2022/12/11 05:08:04;;;;;;;1.73;1.63;;;-1.90;97.30;;;;;;4960086;28;20238;-88
2022/12/11 05:10:32;;;;;;;1.33;1.23;;;-1.80;97.30;;;;;;4957182;28;20481;-90
2022/12/11 05:12:58;;;;;;;4.97;2.40;;;-1.90;97.30;;;;;;4944896;28;20426;-90
2022/12/11 05:15:23;;;;;;;2.10;1.97;;;-1.90;97.30;;;;;;4955493;28;20446;-90
2022/12/11 05:17:49;;;;;;;9.73;2.60;;;-1.90;97.30;;;;;;4947199;28;20246;-90
2022/12/11 05:20:14;;;;;;;1.30;1.20;;;-1.90;97.30;;;;;;4963137;28;20194;-90
2022/12/11 05:22:40;;;;;;;1.40;1.30;;;-1.90;97.30;;;;;;4962603;28;20187;-90
2022/12/11 05:25:06;;;;;;;4.43;3.00;;;-1.90;97.30;;;;;;4949849;28;20225;-91
2022/12/11 05:27:32;;;;;;;2.80;2.60;;;-1.80;97.30;;;;;;4979765;28;20193;-90
2022/12/11 05:29:58;;;;;;;1.73;1.70;;;-1.80;97.30;;;;;;4959797;29;20470;-90
2022/12/11 05:32:23;;;;;;;6.20;2.70;;;-1.80;97.30;;;;;;4955482;28;20430;-90
2022/12/11 05:34:49;;;;;;;2.50;2.30;;;-1.80;97.30;;;;;;4947721;29;20186;-90
2022/12/11 05:37:15;;;;;;;2.10;1.63;;;-1.80;97.30;;;;;;4969030;28;20248;-90
2022/12/11 05:39:41;;;;;;;1.93;1.83;;;-1.80;97.30;;;;;;4953162;28;20473;-90
2022/12/11 05:42:06;;;;;;;1.20;1.10;;;-1.80;97.30;;;;;;4966567;28;20185;-90
2022/12/11 05:44:32;;;;;;;1.70;1.60;;;-1.80;97.30;;;;;;4967639;28;20804;-90
2022/12/11 05:46:58;;;;;;;2.17;2.00;;;-1.80;97.30;;;;;;4959518;28;20575;-91
2022/12/11 05:49:25;;;;;;;2.30;2.10;;;-1.80;97.30;;;;;;4980505;28;20529;-90
2022/12/11 05:51:50;;;;;;;1.57;1.47;;;-1.80;97.30;;;;;;4962148;28;21070;-88
2022/12/11 05:54:16;;;;;;;3.77;3.00;;;-1.80;97.30;;;;;;4962357;28;20186;-90
2022/12/11 05:56:41;;;;;;;2.70;2.00;;;-1.80;97.30;;;;;;4963837;28;20208;-90
2022/12/11 05:59:07;;;;;;;2.43;2.23;;;-1.80;97.30;;;;;;4973312;28;20202;-88
2022/12/11 06:01:37;;;;;;;2.20;2.00;;;-1.80;97.30;;;;;;4970887;28;20190;-90
2022/12/11 06:04:04;;;;;;;1.53;1.20;;;-1.80;97.30;;;;;;4953370;28;20834;-88
2022/12/11 06:06:30;;;;;;;1.40;1.30;;;-1.80;97.30;;;;;;4967314;28;20555;-90
2022/12/11 06:08:57;;;;;;;2.40;1.63;;;-1.80;97.30;;;;;;4977041;28;20558;-90
2022/12/11 06:11:24;;;;;;;2.80;2.60;;;-1.80;97.30;;;;;;4962435;28;20469;-91
2022/12/11 06:13:50;;;;;;;3.03;2.17;;;-1.80;97.30;;;;;;4988892;28;20958;-90
2022/12/11 06:16:15;;;;;;;2.57;1.90;;;-1.80;97.30;;;;;;4963776;28;20442;-89
2022/12/11 06:18:43;;;;;;;2.53;2.33;;;-1.90;97.30;;;;;;4971112;28;20787;-88
2022/12/11 06:21:23;;;;;;;1.63;1.53;;;-1.90;97.30;;;;;;4968979;28;20206;-88
2022/12/11 06:23:51;;;;;;;1.47;1.37;;;-1.90;97.30;;;;;;4963520;28;20418;-86
2022/12/11 06:26:18;;;;;;;1.10;1.00;;;-1.90;97.30;;;;;;4977723;28;20433;-88
2022/12/11 06:28:44;;;;;;;2.40;2.20;;;-1.80;97.30;;;;;;4963470;28;20472;-90
2022/12/11 06:31:10;;;;;;;3.07;2.60;;;-1.80;97.30;;;;;;4964467;28;20952;-90
2022/12/11 06:33:36;;;;;;;1.93;1.83;;;-1.90;97.30;;;;;;4978276;28;20417;-90
2022/12/11 06:36:16;;;;;;;4.57;3.07;;;-1.90;97.30;;;;;;4973724;28;20472;-90
2022/12/11 06:38:42;;;;;;;1.77;1.67;;;-1.90;97.30;;;;;;4968950;28;20796;-90
2022/12/11 06:41:09;;;;;;;1.40;1.30;;;-1.90;97.30;;;;;;4968301;28;20425;-90
2022/12/11 06:43:36;;;;;;;3.70;2.10;;;-1.90;97.30;;;;;;4982353;28;20642;-89
2022/12/11 06:46:06;;;;;;;7.80;2.60;;;-1.90;97.30;;;;;;4969471;28;20495;-89
2022/12/11 06:48:32;;;;;;;2.70;1.93;;;-1.90;97.30;;;;;;4969515;28;20417;-90
2022/12/11 06:50:58;;;;;;;2.50;2.30;;;-1.90;97.30;;;;;;4965479;28;20437;-89
2022/12/11 06:53:24;;;;;;;3.43;3.27;;;-1.90;97.30;;;;;;4969885;28;20413;-91
2022/12/11 06:55:49;;;;;;;2.53;2.23;;;-2.00;97.30;;;;;;4964635;28;20210;-90
2022/12/11 06:58:15;;;;;;;2.20;1.77;;;-2.00;97.30;;;;;;4972255;28;20196;-89
2022/12/11 07:00:41;;;;;;;1.87;1.83;;;-2.00;97.30;;;;;;4977025;28;20218;-89
2022/12/11 07:03:10;;;;;;;2.10;1.73;;;-2.00;97.30;;;;;;4966833;28;20440;-90
2022/12/11 07:05:36;;;;;;;4.43;1.73;;;-2.00;97.30;;;;;;4972018;28;20528;-90
2022/12/11 07:08:06;;;;;;;2.27;2.07;;;-2.00;97.30;;;;;;4979880;28;20919;-90
2022/12/11 07:10:31;;;;;;;5.03;3.97;;;-2.00;97.30;;;;;;4973150;28;20671;-89
2022/12/11 07:12:57;;;;;;;4.00;3.80;;;-2.00;97.30;;;;;;4976206;28;20507;-89
2022/12/11 07:15:22;;;;;;;2.30;2.13;;;-2.00;97.30;;;;;;4969171;28;20221;-90
2022/12/11 07:17:48;;;;;;;15.40;2.40;;;-2.00;97.30;;;;;;4966161;28;20190;-89
2022/12/11 07:20:13;;;;;;;2.33;2.13;;;-2.00;97.30;;;;;;4984564;28;20365;-89
2022/12/11 07:22:39;;;;;;;2.17;1.57;;;-2.00;97.30;;;;;;4975106;28;20213;-89
2022/12/11 07:25:05;;;;;;;1.20;1.10;;;-2.00;97.30;;;;;;4970641;28;20619;-89
2022/12/11 07:27:30;;;;;;;3.93;3.27;;;-2.00;97.30;;;;;;4971564;28;20653;-89
2022/12/11 07:29:56;;;;;;;1.67;1.57;;;-2.00;97.30;;;;;;4981784;28;20461;-89
2022/12/11 07:32:21;;;;;;;4.53;2.20;;;-2.00;97.30;;;;;;4969587;28;20265;-90
2022/12/11 07:34:48;;;;;;;3.47;3.27;;;-1.90;97.30;;;;;;4967819;28;20185;-89
2022/12/11 07:37:13;;;;;;;1.87;1.50;;;-1.90;97.30;;;;;;4983918;28;20241;-89
2022/12/11 07:39:39;;;;;;;2.17;2.00;;;-1.90;97.30;;;;;;4966301;28;20426;-90
2022/12/11 07:42:04;;;;;;;5.40;2.40;;;-1.90;97.30;;;;;;4962151;28;20609;-90
2022/12/11 07:44:30;;;;;;;9.67;5.37;;;-1.90;97.30;;;;;;4980279;28;20190;-90
2022/12/11 07:46:55;;;;;;;1.97;1.87;;;-1.90;97.30;;;;;;4963949;28;20214;-90
2022/12/11 07:49:21;;;;;;;2.30;2.10;;;-1.90;97.30;;;;;;4975031;28;20183;-90
2022/12/11 07:51:46;;;;;;;4.10;3.87;;;-1.90;97.30;;;;;;4984752;28;20551;-90
2022/12/11 07:54:15;;;;;;;4.60;4.30;;;-1.90;97.30;;;;;;4970013;28;20186;-89
2022/12/11 07:56:43;;;;;;;1.70;1.60;;;-1.90;97.30;;;;;;4975058;28;20255;-90
2022/12/11 07:59:08;;;;;;;3.00;2.13;;;-1.80;97.30;;;;;;4963318;28;20422;-90
2022/12/11 08:01:35;;;;;;;3.07;2.60;;;-1.80;97.30;;;;;;4974178;28;20433;-90
2022/12/11 08:04:02;;;;;;;3.70;1.97;;;-1.80;97.30;;;;;;4971944;28;20222;-89
2022/12/11 08:06:33;;;;;;;2.70;2.53;;;-1.70;97.30;;;;;;4960968;28;20465;-90
2022/12/11 08:09:01;;;;;;;1.63;1.53;;;-1.70;97.30;;;;;;4980171;28;20410;-89
2022/12/11 08:11:27;;;;;;;10.13;3.70;;;-1.70;97.30;;;;;;4972161;28;20450;-90
2022/12/11 08:13:53;;;;;;;1.47;1.40;;;-1.70;97.30;;;;;;4957947;28;20496;-90
2022/12/11 08:16:19;;;;;;;2.17;2.00;;;-1.60;97.30;;;;;;4971030;28;20205;-89
2022/12/11 08:18:46;;;;;;;1.83;1.73;;;-1.60;97.30;;;;;;4976816;28;20438;-90
2022/12/11 08:21:18;;;;;;;2.70;1.80;;;-1.60;97.30;;;;;;4973102;28;20430;-90
2022/12/11 08:23:44;;;;;;;1.83;1.73;;;-1.60;97.30;;;;;;4971735;28;20702;-89
2022/12/11 08:26:23;;;;;;;10.30;2.67;;;-1.70;97.30;;;;;;4967728;28;20441;-90
2022/12/11 08:28:48;;;;;;;2.17;2.00;;;-1.70;97.30;;;;;;4955098;28;20183;-89
2022/12/11 08:31:15;;;;;;;6.63;1.83;;;-1.70;97.30;;;;;;4969868;28;20533;-89
2022/12/11 08:33:41;;;;;;;5.27;4.00;;;-1.70;97.30;;;;;;4978803;28;20190;-90
2022/12/11 08:36:09;;;;;;;2.83;2.37;;;-1.70;97.30;;;;;;4966587;28;21037;-89
2022/12/11 08:38:35;;;;;;;1.37;1.27;;;-1.70;97.30;;;;;;4975971;28;20802;-89
2022/12/11 08:41:22;;;;;;;1.70;1.60;;;-1.70;97.30;;;;;;4960125;28;20432;-89
2022/12/11 08:43:48;;;;;;;2.50;2.30;;;-1.70;97.30;;;;;;4968000;28;20422;-90
2022/12/11 08:46:14;;;;;;;1.63;1.27;;;-1.70;97.30;;;;;;4967034;28;20806;-89
2022/12/11 08:48:41;;;;;;;4.80;3.40;;;-1.70;97.30;;;;;;4961101;28;20480;-90
2022/12/11 08:51:16;;;;;;;1.20;1.10;;;-1.60;97.30;;;;;;4964355;28;20445;-90
2022/12/11 08:53:42;;;;;;;4.30;2.83;;;-1.60;97.30;;;;;;4962720;28;20416;-90
2022/12/11 08:56:14;;;;;;;1.80;1.33;;;-1.60;97.30;;;;;;4957841;28;20781;-91
2022/12/11 08:58:40;;;;;;;1.30;1.20;;;-1.60;97.30;;;;;;4973115;28;20924;-89
2022/12/11 09:01:14;;;;;;;3.03;2.60;;;-1.60;97.30;;;;;;4977542;28;20434;-89
2022/12/11 09:03:41;;;;;;;1.40;1.30;;;-1.60;97.30;;;;;;4967324;28;20413;-89
2022/12/11 09:06:12;;;;;;;1.87;1.77;;;-1.60;97.30;;;;;;4963030;28;20817;-89
2022/12/11 09:08:38;;;;;;;2.50;2.30;;;-1.60;97.30;;;;;;4966963;28;20429;-89
2022/12/11 09:11:06;;;;;;;1.63;1.57;;;-1.60;97.30;;;;;;4963456;28;20414;-88
2022/12/11 09:13:31;;;;;;;3.57;3.03;;;-1.60;97.30;;;;;;4980484;28;20433;-89
2022/12/11 09:15:57;;;;;;;4.90;3.43;;;-1.60;97.30;;;;;;4975713;28;20445;-88
2022/12/11 09:18:23;;;;;;;1.60;1.50;;;-1.60;97.30;;;;;;4969045;28;20186;-88
2022/12/11 09:20:59;;;;;;;1.10;1.00;;;-1.60;97.30;;;;;;4969677;28;20174;-88
2022/12/11 09:23:24;;;;;;;1.47;1.37;;;-1.60;97.30;;;;;;4985245;28;20192;-89
2022/12/11 09:25:50;;;;;;;2.70;1.80;;;-1.60;97.30;;;;;;4969120;28;20437;-89
2022/12/11 09:28:16;;;;;;;2.80;2.60;;;-1.60;97.30;;;;;;4974889;28;20198;-88
2022/12/11 09:30:41;;;;;;;1.30;1.20;;;-1.60;97.30;;;;;;4966336;28;20175;-88
2022/12/11 09:33:07;;;;;;;2.67;2.47;;;-1.50;97.30;;;;;;4983455;28;20509;-87
2022/12/11 09:35:32;;;;;;;3.10;2.90;;;-1.50;97.30;;;;;;4965249;28;20246;-88
2022/12/11 09:37:58;;;;;;;1.57;1.47;;;-1.50;97.30;;;;;;5036956;23;20235;-85
2022/12/11 09:40:23;;;;;;;1.63;1.53;;;-1.40;97.30;;;;;;4990339;28;20178;-88
2022/12/11 09:42:54;;;;;;;2.80;2.60;;;-1.40;97.30;;;;;;4992346;28;20177;-90
2022/12/11 09:45:19;;;;;;;1.63;1.53;;;-1.30;97.30;;;;;;5007993;28;20169;-91
2022/12/11 09:47:50;;;;;;;3.67;3.47;;;-1.30;97.30;;;;;;4989914;28;20518;-87
2022/12/11 09:50:30;;;;;;;1.23;1.13;;;-1.20;97.30;;;;;;4995216;28;20244;-87
2022/12/11 09:53:12;;;;;;;1.40;1.30;;;-1.10;97.30;;;;;;4995405;28;20415;-87
2022/12/11 09:55:49;;;;;;;2.50;1.70;;;-1.10;97.30;;;;;;4991997;28;20662;-88
2022/12/11 09:58:49;;;;;;;2.47;2.27;;;-1.10;97.30;;;;;;4995454;28;20459;-88
2022/12/11 10:01:31;;;;;;;1.70;1.20;;;-1.10;97.30;;;;;;5012019;28;20483;-90
2022/12/11 10:03:59;;;;;;;2.07;1.93;;;-1.10;97.30;;;;;;4988754;28;20440;-90
2022/12/11 10:06:40;;;;;;;4.63;1.80;;;-1.10;97.30;;;;;;4994737;28;20515;-89
2022/12/11 10:09:13;;;;;;;1.57;1.47;;;-1.10;97.30;;;;;;5013157;28;20501;-88
2022/12/11 10:12:02;;;;;;;4.77;1.47;;;-1.10;97.30;;;;;;4989356;28;20412;-88
2022/12/11 10:14:46;;;;;;;2.67;2.47;;;-1.10;97.30;;;;;;4995142;28;20421;-91
2022/12/11 10:17:20;;;;;;;1.33;1.23;;;-1.00;97.30;;;;;;4995232;28;20534;-89
2022/12/11 10:19:46;;;;;;;2.07;1.93;;;-0.90;97.30;;;;;;4994826;28;20783;-89
2022/12/11 10:22:21;;;;;;;1.70;1.63;;;-0.90;97.30;;;;;;4995066;28;20416;-89
2022/12/11 10:25:05;;;;;;;2.57;2.40;;;-1.00;97.30;;;;;;4994672;28;21866;-92
2022/12/11 10:27:34;;;;;;;2.50;2.30;;;-1.10;97.30;;;;;;4992860;28;20459;-91
2022/12/11 10:30:14;;;;;;;3.83;1.30;;;-1.20;97.30;;;;;;4995343;28;20858;-87
2022/12/11 10:33:10;;;;;;;8.43;1.70;;;-1.20;97.30;;;;;;4982193;28;20424;-86
2022/12/11 10:35:45;;;;;;;2.00;1.90;;;-1.20;97.30;;;;;;4981411;28;20908;-88
2022/12/11 10:38:31;;;;;;;4.93;3.53;;;-1.20;97.30;;;;;;4986209;28;20476;-90
2022/12/11 10:41:03;;;;;;;13.93;1.93;;;-1.20;97.30;;;;;;4985126;28;20489;-86
2022/12/11 10:43:43;;;;;;;2.17;1.80;;;-1.20;97.30;;;;;;4982768;28;20417;-89
2022/12/11 10:46:21;;;;;;;2.37;2.20;;;-1.20;97.30;;;;;;4989909;28;20512;-92
2022/12/11 10:48:58;;;;;;;1.70;1.60;;;-1.30;97.30;;;;;;4994113;28;20448;-93
2022/12/11 10:51:32;;;;;;;2.63;2.43;;;-1.30;97.30;;;;;;4987319;28;20455;-92
2022/12/11 10:54:35;;;;;;;1.00;0.90;;;-1.30;97.30;;;;;;4997488;28;20495;-92
2022/12/11 10:57:03;;;;;;;1.37;1.27;;;-1.30;97.30;;;;;;4986722;28;20583;-92
2022/12/11 10:59:48;;;;;;;1.40;1.30;;;-1.30;97.30;;;;;;4995921;28;20409;-94
2022/12/11 11:02:40;;;;;;;2.13;1.97;;;-1.20;97.30;;;;;;4997006;28;20426;-93
2022/12/11 11:05:21;;;;;;;3.93;3.73;;;-1.20;97.30;;;;;;4986773;28;20418;-92
2022/12/11 11:07:46;;;;;;;3.60;2.50;;;-1.20;97.30;;;;;;4997095;28;20467;-92
2022/12/11 11:10:12;;;;;;;1.83;1.73;;;-1.20;97.30;;;;;;4997143;28;20518;-93
2022/12/11 11:12:39;;;;;;;3.20;3.00;;;-1.20;97.30;;;;;;4992680;28;20178;-92
2022/12/11 11:15:09;;;;;;;3.67;3.47;;;-1.20;97.30;;;;;;4991038;28;20453;-92
2022/12/11 11:17:43;;;;;;;3.37;2.43;;;-1.10;97.30;;;;;;4999234;28;21021;-92
2022/12/11 11:20:17;;;;;;;6.23;2.40;;;-1.10;97.30;;;;;;5001224;28;20458;-90
2022/12/11 11:22:48;;;;;;;2.20;2.00;;;-1.10;97.30;;;;;;4988039;28;20424;-92
2022/12/11 11:25:23;;;;;;;2.63;2.43;;;-1.00;97.30;;;;;;5000849;28;21144;-93
2022/12/11 11:28:07;;;;;;;2.90;2.07;;;-1.00;97.30;;;;;;5000627;28;20514;-93
2022/12/11 11:30:40;;;;;;;3.20;3.00;;;-1.00;97.30;;;;;;5000801;28;20431;-92
2022/12/11 11:33:17;;;;;;;8.67;3.53;;;-1.00;97.30;;;;;;5000931;28;20420;-93
2022/12/11 11:35:54;;;;;;;4.20;2.27;;;-0.90;97.30;;;;;;5027448;28;20446;-92
2022/12/11 11:38:35;;;;;;;2.50;1.70;;;-0.80;97.30;;;;;;4999818;28;21186;-93
2022/12/11 11:41:16;;;;;;;8.83;5.03;;;-0.80;97.30;;;;;;5001298;28;20428;-91
2022/12/11 11:43:48;;;;;;;5.90;1.97;;;-0.80;97.30;;;;;;4988697;28;20420;-93
2022/12/11 11:46:29;;;;;;;7.30;4.30;;;-0.80;97.30;;;;;;5001708;28;20451;-94
2022/12/11 11:49:05;;;;;;;3.53;3.37;;;-0.80;97.30;;;;;;5003977;28;20483;-92
2022/12/11 11:51:52;;;;;;;1.87;1.77;;;-0.80;97.30;;;;;;5000254;28;20424;-93
2022/12/11 11:54:38;;;;;;;5.90;2.40;;;-0.80;97.30;;;;;;4988675;28;20413;-92
2022/12/11 11:57:14;;;;;;;18.07;3.50;;;-0.90;97.30;;;;;;4986631;28;20452;-93
2022/12/11 11:59:44;;;;;;;8.10;2.77;;;-0.90;97.30;;;;;;4997409;28;20416;-89
2022/12/11 12:02:17;;;;;;;6.90;3.67;;;-0.90;97.30;;;;;;4988023;28;20421;-90
2022/12/11 12:04:45;;;;;;;5.83;3.80;;;-0.90;97.30;;;;;;4993945;28;20486;-90
2022/12/11 12:07:27;;;;;;;4.63;2.90;;;-0.90;97.30;;;;;;4996443;28;20460;-90
2022/12/11 12:10:14;;;;;;;1.73;1.63;;;-1.00;97.30;;;;;;4991092;28;20421;-90
2022/12/11 12:12:52;;;;;;;2.13;1.83;;;-1.00;97.30;;;;;;5009492;28;20547;-90
2022/12/11 12:15:32;;;;;;;3.33;3.13;;;-1.00;97.30;;;;;;4988703;28;20523;-90
2022/12/11 12:18:12;;;;;;;4.83;3.07;;;-0.90;97.30;;;;;;4994464;28;20440;-89
2022/12/11 12:21:03;;;;;;;2.13;1.53;;;-0.90;97.30;;;;;;4994181;28;20425;-91
2022/12/11 12:23:43;;;;;;;3.70;3.50;;;-0.90;97.30;;;;;;4994980;28;20482;-91
2022/12/11 12:26:27;;;;;;;3.40;3.20;;;-0.90;97.30;;;;;;4991150;28;20445;-91
2022/12/11 12:28:58;;;;;;;2.53;1.70;;;-1.00;97.30;;;;;;4989357;28;20437;-91
2022/12/11 12:31:57;;;;;;;1.93;1.83;;;-1.00;97.30;;;;;;4988398;28;20409;-91
2022/12/11 12:34:53;;;;;;;4.00;2.60;;;-0.90;97.30;;;;;;4988518;28;20930;-91
2022/12/11 12:37:57;;;;;;;8.50;2.87;;;-0.90;97.30;;;;;;4992876;28;20601;-90
2022/12/11 12:41:13;;;;;;;3.90;3.13;;;-0.90;97.30;;;;;;5003499;28;20417;-92
2022/12/11 12:44:09;;;;;;;1.60;1.50;;;-0.90;97.30;;;;;;4939281;28;20434;-91
2022/12/11 12:47:02;;;;;;;3.73;3.40;;;-0.90;97.30;;;;;;4990414;28;20875;-91
2022/12/11 12:49:38;;;;;;;2.33;2.13;;;-0.90;97.30;;;;;;4987712;28;20523;-91
2022/12/11 12:52:09;;;;;;;7.03;3.30;;;-1.00;97.30;;;;;;4978395;28;20816;-92
2022/12/11 12:54:35;;;;;;;6.53;2.70;;;-1.00;97.30;;;;;;4983257;28;20416;-91
2022/12/11 12:57:02;;;;;;;1.97;1.83;;;-1.00;97.30;;;;;;4994495;28;20862;-90
2022/12/11 12:59:28;;;;;;;4.30;4.10;;;-1.10;97.30;;;;;;4985742;28;20422;-92
2022/12/11 13:01:57;;;;;;;3.60;3.03;;;-1.10;97.30;;;;;;4986937;28;20474;-90
2022/12/11 13:04:56;;;;;;;1.83;1.73;;;-1.10;97.30;;;;;;4985660;28;20186;-92
2022/12/11 13:07:28;;;;;;;2.40;2.20;;;-1.20;97.30;;;;;;4961281;28;20468;-91
2022/12/11 13:10:21;;;;;;;4.23;3.23;;;-1.10;97.30;;;;;;4996905;28;20841;-91
2022/12/11 13:12:47;;;;;;;1.30;1.20;;;-1.10;97.30;;;;;;4985207;28;20886;-91
2022/12/11 13:15:42;;;;;;;1.53;1.43;;;-1.10;97.30;;;;;;4985358;28;20456;-92